sensor_id;sensor_type;location;lat;lon;timestamp;pressure;altitude;pressure_sealevel;temperature;humidity
21706;BME280;11014;53.076;18.208;2022-12-20T00:03:00;101717.84;;;7.61;61.86
21706;BME280;11014;53.076;18.208;2022-12-20T00:05:39;101719.22;;;7.57;61.96
21706;BME280;11014;53.076;18.208;2022-12-20T00:08:39;101712.13;;;7.64;61.88
21706;BME280;11014;53.076;18.208;2022-12-20T00:11:28;101705.38;;;7.68;61.69
21706;BME280;11014;53.076;18.208;2022-12-20T00:13:59;101705.22;;;7.69;61.88
21706;BME280;11014;53.076;18.208;2022-12-20T00:17:13;101710.38;;;7.71;61.65
21706;BME280;11014;53.076;18.208;2022-12-20T00:19:45;101709.38;;;7.72;61.94
21706;BME280;11014;53.076;18.208;2022-12-20T00:22:13;101712.31;;;7.77;61.70
21706;BME280;11014;53.076;18.208;2022-12-20T00:24:44;101696.63;;;7.74;62.10
21706;BME280;11014;53.076;18.208;2022-12-20T00:27:12;101701.59;;;7.77;61.90
21706;BME280;11014;53.076;18.208;2022-12-20T00:29:42;101692.22;;;7.81;61.84
21706;BME280;11014;53.076;18.208;2022-12-20T00:32:11;101691.19;;;7.82;61.60
21706;BME280;11014;53.076;18.208;2022-12-20T00:34:39;101693.84;;;7.82;61.87
21706;BME280;11014;53.076;18.208;2022-12-20T00:37:08;101696.16;;;7.85;61.93
21706;BME280;11014;53.076;18.208;2022-12-20T00:39:39;101702.13;;;7.87;61.58
21706;BME280;11014;53.076;18.208;2022-12-20T00:42:07;101694.41;;;7.92;61.70
21706;BME280;11014;53.076;18.208;2022-12-20T00:44:36;101705.53;;;7.96;61.57
21706;BME280;11014;53.076;18.208;2022-12-20T00:47:04;101705.75;;;7.94;61.81
21706;BME280;11014;53.076;18.208;2022-12-20T00:49:33;101711.47;;;7.91;61.71
21706;BME280;11014;53.076;18.208;2022-12-20T00:52:02;101702.13;;;7.87;61.57
21706;BME280;11014;53.076;18.208;2022-12-20T00:54:30;101705.47;;;7.89;62.03
21706;BME280;11014;53.076;18.208;2022-12-20T00:56:59;101697.25;;;7.91;61.62
21706;BME280;11014;53.076;18.208;2022-12-20T00:59:29;101690.69;;;7.93;61.78
21706;BME280;11014;53.076;18.208;2022-12-20T01:01:57;101692.38;;;7.94;61.67
21706;BME280;11014;53.076;18.208;2022-12-20T01:04:28;101679.63;;;7.96;61.71
21706;BME280;11014;53.076;18.208;2022-12-20T01:06:57;101690.31;;;7.96;61.64
21706;BME280;11014;53.076;18.208;2022-12-20T01:09:25;101697.34;;;7.97;61.59
21706;BME280;11014;53.076;18.208;2022-12-20T01:11:55;101689.50;;;7.96;61.72
21706;BME280;11014;53.076;18.208;2022-12-20T01:14:24;101682.94;;;7.98;61.80
21706;BME280;11014;53.076;18.208;2022-12-20T01:16:52;101688.94;;;8.00;61.91
21706;BME280;11014;53.076;18.208;2022-12-20T01:19:21;101691.63;;;8.00;61.77
21706;BME280;11014;53.076;18.208;2022-12-20T01:21:50;101686.28;;;8.00;61.97
21706;BME280;11014;53.076;18.208;2022-12-20T01:24:18;101678.41;;;7.99;61.59
21706;BME280;11014;53.076;18.208;2022-12-20T01:26:47;101681.28;;;7.97;61.79
21706;BME280;11014;53.076;18.208;2022-12-20T01:29:16;101670.22;;;8.00;61.90
21706;BME280;11014;53.076;18.208;2022-12-20T01:31:45;101657.84;;;7.99;61.64
21706;BME280;11014;53.076;18.208;2022-12-20T01:34:13;101665.88;;;7.99;61.69
21706;BME280;11014;53.076;18.208;2022-12-20T01:36:42;101662.38;;;7.99;61.79
21706;BME280;11014;53.076;18.208;2022-12-20T01:39:14;101652.88;;;7.96;61.78
21706;BME280;11014;53.076;18.208;2022-12-20T01:41:43;101649.91;;;8.06;61.70
21706;BME280;11014;53.076;18.208;2022-12-20T01:46:45;101633.31;;;7.96;61.59
21706;BME280;11014;53.076;18.208;2022-12-20T01:49:21;101637.81;;;7.95;61.80
21706;BME280;11014;53.076;18.208;2022-12-20T01:51:55;101632.69;;;7.94;61.89
21706;BME280;11014;53.076;18.208;2022-12-20T01:55:00;101630.84;;;7.94;61.82
21706;BME280;11014;53.076;18.208;2022-12-20T01:57:41;101634.34;;;7.95;61.85
21706;BME280;11014;53.076;18.208;2022-12-20T02:00:13;101635.56;;;7.92;61.73
21706;BME280;11014;53.076;18.208;2022-12-20T02:02:44;101634.88;;;7.90;61.68
21706;BME280;11014;53.076;18.208;2022-12-20T02:05:16;101634.25;;;7.88;62.04
21706;BME280;11014;53.076;18.208;2022-12-20T02:07:47;101629.75;;;7.89;61.80
21706;BME280;11014;53.076;18.208;2022-12-20T02:10:20;101636.94;;;7.88;61.83
21706;BME280;11014;53.076;18.208;2022-12-20T02:12:55;101637.56;;;7.90;61.98
21706;BME280;11014;53.076;18.208;2022-12-20T02:15:38;101625.41;;;7.88;61.80
21706;BME280;11014;53.076;18.208;2022-12-20T02:21:26;101634.88;;;7.90;61.68
21706;BME280;11014;53.076;18.208;2022-12-20T02:24:17;101637.56;;;7.90;61.54
21706;BME280;11014;53.076;18.208;2022-12-20T02:29:35;101649.84;;;7.85;61.63
21706;BME280;11014;53.076;18.208;2022-12-20T02:34:44;101632.16;;;7.84;61.74
21706;BME280;11014;53.076;18.208;2022-12-20T02:37:13;101632.97;;;7.84;61.58
21706;BME280;11014;53.076;18.208;2022-12-20T02:39:43;101626.59;;;7.85;61.79
21706;BME280;11014;53.076;18.208;2022-12-20T02:42:20;101625.59;;;7.86;61.64
21706;BME280;11014;53.076;18.208;2022-12-20T02:44:59;101619.88;;;7.89;61.69
21706;BME280;11014;53.076;18.208;2022-12-20T02:47:59;101629.38;;;7.92;61.59
21706;BME280;11014;53.076;18.208;2022-12-20T02:50:41;101630.22;;;7.92;61.69
21706;BME280;11014;53.076;18.208;2022-12-20T02:53:11;101630.22;;;7.92;61.70
21706;BME280;11014;53.076;18.208;2022-12-20T02:55:51;101617.47;;;7.94;61.64
21706;BME280;11014;53.076;18.208;2022-12-20T02:58:35;101615.41;;;7.96;61.79
21706;BME280;11014;53.076;18.208;2022-12-20T03:01:08;101625.38;;;8.02;61.61
21706;BME280;11014;53.076;18.208;2022-12-20T03:03:39;101626.00;;;8.04;61.51
21706;BME280;11014;53.076;18.208;2022-12-20T03:06:08;101627.47;;;8.07;61.64
21706;BME280;11014;53.076;18.208;2022-12-20T03:08:36;101630.97;;;8.07;61.26
21706;BME280;11014;53.076;18.208;2022-12-20T03:11:05;101636.59;;;8.12;61.39
21706;BME280;11014;53.076;18.208;2022-12-20T03:13:35;101637.88;;;8.16;61.21
21706;BME280;11014;53.076;18.208;2022-12-20T03:16:08;101636.84;;;8.17;61.21
21706;BME280;11014;53.076;18.208;2022-12-20T03:19:03;101643.22;;;8.16;61.24
21706;BME280;11014;53.076;18.208;2022-12-20T03:21:31;101636.41;;;8.14;60.97
21706;BME280;11014;53.076;18.208;2022-12-20T03:24:01;101636.00;;;8.17;61.03
21706;BME280;11014;53.076;18.208;2022-12-20T03:26:29;101636.66;;;8.19;61.15
21706;BME280;11014;53.076;18.208;2022-12-20T03:29:00;101636.66;;;8.19;61.12
21706;BME280;11014;53.076;18.208;2022-12-20T03:31:28;101637.09;;;8.22;61.04
21706;BME280;11014;53.076;18.208;2022-12-20T03:33:57;101627.44;;;8.21;60.86
21706;BME280;11014;53.076;18.208;2022-12-20T03:36:25;101627.69;;;8.26;60.94
21706;BME280;11014;53.076;18.208;2022-12-20T03:38:59;101624.66;;;8.29;60.74
21706;BME280;11014;53.076;18.208;2022-12-20T03:41:31;101619.09;;;8.31;60.70
21706;BME280;11014;53.076;18.208;2022-12-20T03:44:00;101632.94;;;8.34;60.63
21706;BME280;11014;53.076;18.208;2022-12-20T03:46:28;101630.25;;;8.34;60.70
21706;BME280;11014;53.076;18.208;2022-12-20T03:48:57;101635.63;;;8.34;60.63
21706;BME280;11014;53.076;18.208;2022-12-20T03:51:26;101630.25;;;8.34;60.48
21706;BME280;11014;53.076;18.208;2022-12-20T03:53:55;101623.25;;;8.33;60.31
21706;BME280;11014;53.076;18.208;2022-12-20T03:56:31;101612.97;;;8.37;60.42
21706;BME280;11014;53.076;18.208;2022-12-20T03:59:00;101620.00;;;8.38;60.37
21706;BME280;11014;53.076;18.208;2022-12-20T04:01:28;101616.50;;;8.38;60.48
21706;BME280;11014;53.076;18.208;2022-12-20T04:03:58;101616.13;;;8.41;60.36
21706;BME280;11014;53.076;18.208;2022-12-20T04:06:27;101625.16;;;8.40;60.34
21706;BME280;11014;53.076;18.208;2022-12-20T04:08:56;101619.63;;;8.41;60.34
21706;BME280;11014;53.076;18.208;2022-12-20T04:11:30;101617.38;;;8.45;59.99
21706;BME280;11014;53.076;18.208;2022-12-20T04:14:19;101596.78;;;8.45;59.92
21706;BME280;11014;53.076;18.208;2022-12-20T04:16:58;101600.28;;;8.46;59.94
21706;BME280;11014;53.076;18.208;2022-12-20T04:19:28;101598.44;;;8.46;60.15
21706;BME280;11014;53.076;18.208;2022-12-20T04:21:56;101602.72;;;8.41;60.07
21706;BME280;11014;53.076;18.208;2022-12-20T04:24:46;101604.38;;;8.42;59.99
21706;BME280;11014;53.076;18.208;2022-12-20T04:27:25;101604.38;;;8.42;60.04
21706;BME280;11014;53.076;18.208;2022-12-20T04:29:56;101599.00;;;8.42;59.89
21706;BME280;11014;53.076;18.208;2022-12-20T04:32:28;101604.38;;;8.42;59.98
21706;BME280;11014;53.076;18.208;2022-12-20T04:34:57;101602.34;;;8.44;59.75
21706;BME280;11014;53.076;18.208;2022-12-20T04:37:26;101597.00;;;8.44;59.66
21706;BME280;11014;53.076;18.208;2022-12-20T04:39:57;101591.25;;;8.47;59.65
21706;BME280;11014;53.076;18.208;2022-12-20T04:42:57;101597.88;;;8.51;59.61
21706;BME280;11014;53.076;18.208;2022-12-20T04:45:28;101602.38;;;8.50;59.70
21706;BME280;11014;53.076;18.208;2022-12-20T04:48:00;101603.72;;;8.61;59.36
21706;BME280;11014;53.076;18.208;2022-12-20T04:50:49;101607.81;;;8.57;59.19
21706;BME280;11014;53.076;18.208;2022-12-20T04:53:18;101610.63;;;8.49;59.33
21706;BME280;11014;53.076;18.208;2022-12-20T04:56:05;101609.78;;;8.48;59.24
21706;BME280;11014;53.076;18.208;2022-12-20T04:58:34;101614.31;;;8.48;59.54
21706;BME280;11014;53.076;18.208;2022-12-20T05:01:10;101615.97;;;8.49;59.52
21706;BME280;11014;53.076;18.208;2022-12-20T05:03:47;101604.22;;;8.50;59.62
21706;BME280;11014;53.076;18.208;2022-12-20T05:06:25;101605.91;;;8.51;59.40
21706;BME280;11014;53.076;18.208;2022-12-20T05:09:14;101601.81;;;8.55;59.38
21706;BME280;11014;53.076;18.208;2022-12-20T05:11:45;101602.44;;;8.57;58.99
21706;BME280;11014;53.076;18.208;2022-12-20T05:14:14;101605.75;;;8.59;59.31
21706;BME280;11014;53.076;18.208;2022-12-20T05:16:46;101612.78;;;8.60;59.08
21706;BME280;11014;53.076;18.208;2022-12-20T05:19:20;101608.88;;;8.62;58.91
21706;BME280;11014;53.076;18.208;2022-12-20T05:22:15;101608.69;;;8.64;59.01
21706;BME280;11014;53.076;18.208;2022-12-20T05:25:12;101601.31;;;8.66;58.98
21706;BME280;11014;53.076;18.208;2022-12-20T05:28:04;101603.72;;;8.61;58.92
21706;BME280;11014;53.076;18.208;2022-12-20T05:30:37;101591.75;;;8.57;58.69
21706;BME280;11014;53.076;18.208;2022-12-20T05:33:08;101582.56;;;8.66;58.82
21706;BME280;11014;53.076;18.208;2022-12-20T05:35:38;101585.38;;;8.58;58.67
21706;BME280;11014;53.076;18.208;2022-12-20T05:38:11;101588.63;;;8.53;58.65
21706;BME280;11014;53.076;18.208;2022-12-20T05:44:05;101578.97;;;8.59;58.84
21706;BME280;11014;53.076;18.208;2022-12-20T05:46:41;101581.03;;;8.57;58.53
21706;BME280;11014;53.076;18.208;2022-12-20T05:49:15;101577.72;;;8.55;58.62
21706;BME280;11014;53.076;18.208;2022-12-20T05:51:56;101571.72;;;8.53;58.52
21706;BME280;11014;53.076;18.208;2022-12-20T05:54:32;101571.72;;;8.53;58.32
21706;BME280;11014;53.076;18.208;2022-12-20T05:57:10;101572.53;;;8.53;58.58
21706;BME280;11014;53.076;18.208;2022-12-20T05:59:41;101565.28;;;8.47;58.31
21706;BME280;11014;53.076;18.208;2022-12-20T06:02:15;101568.53;;;8.43;58.46
21706;BME280;11014;53.076;18.208;2022-12-20T06:04:49;101554.53;;;8.41;58.42
21706;BME280;11014;53.076;18.208;2022-12-20T06:07:21;101571.84;;;8.45;58.41
21706;BME280;11014;53.076;18.208;2022-12-20T06:09:55;101580.94;;;8.44;58.42
21706;BME280;11014;53.076;18.208;2022-12-20T06:12:34;101583.59;;;8.44;58.26
21706;BME280;11014;53.076;18.208;2022-12-20T06:15:03;101582.56;;;8.45;58.28
21706;BME280;11014;53.076;18.208;2022-12-20T06:17:38;101584.63;;;8.43;58.29
21706;BME280;11014;53.076;18.208;2022-12-20T06:22:47;101574.75;;;8.43;58.11
21706;BME280;11014;53.076;18.208;2022-12-20T06:25:18;101579.63;;;8.40;58.03
21706;BME280;11014;53.076;18.208;2022-12-20T06:27:47;101592.41;;;8.38;58.10
21706;BME280;11014;53.076;18.208;2022-12-20T06:30:19;101582.06;;;8.34;58.07
21706;BME280;11014;53.076;18.208;2022-12-20T06:33:11;101581.25;;;8.34;58.15
21706;BME280;11014;53.076;18.208;2022-12-20T06:35:43;101583.50;;;8.30;58.03
21706;BME280;11014;53.076;18.208;2022-12-20T06:38:14;101585.34;;;8.30;58.29
21706;BME280;11014;53.076;18.208;2022-12-20T06:40:46;101582.84;;;8.28;58.20
21706;BME280;11014;53.076;18.208;2022-12-20T06:43:15;101597.59;;;8.24;58.03
21706;BME280;11014;53.076;18.208;2022-12-20T06:45:44;101596.56;;;8.25;58.07
21706;BME280;11014;53.076;18.208;2022-12-20T06:48:12;101605.44;;;8.26;58.39
21706;BME280;11014;53.076;18.208;2022-12-20T06:50:44;101614.97;;;8.28;58.04
21706;BME280;11014;53.076;18.208;2022-12-20T06:53:23;101608.59;;;8.29;58.12
21706;BME280;11014;53.076;18.208;2022-12-20T06:55:52;101614.41;;;8.33;57.97
21706;BME280;11014;53.076;18.208;2022-12-20T06:58:23;101616.03;;;8.34;57.88
21706;BME280;11014;53.076;18.208;2022-12-20T07:00:55;101613.19;;;8.36;57.94
21706;BME280;11014;53.076;18.208;2022-12-20T07:03:24;101608.47;;;8.38;57.68
21706;BME280;11014;53.076;18.208;2022-12-20T07:05:54;101616.13;;;8.41;57.88
21706;BME280;11014;53.076;18.208;2022-12-20T07:08:28;101618.03;;;8.47;57.91
21706;BME280;11014;53.076;18.208;2022-12-20T07:11:03;101618.44;;;8.50;57.57
21706;BME280;11014;53.076;18.208;2022-12-20T07:13:38;101626.72;;;8.55;57.54
21706;BME280;11014;53.076;18.208;2022-12-20T07:16:16;101632.53;;;8.59;57.63
21706;BME280;11014;53.076;18.208;2022-12-20T07:18:48;101621.00;;;8.58;57.54
21706;BME280;11014;53.076;18.208;2022-12-20T07:21:18;101633.81;;;8.63;57.53
21706;BME280;11014;53.076;18.208;2022-12-20T07:23:47;101644.16;;;8.66;57.06
21706;BME280;11014;53.076;18.208;2022-12-20T07:26:15;101645.63;;;8.68;57.23
21706;BME280;11014;53.076;18.208;2022-12-20T07:28:48;101647.06;;;8.71;57.24
21706;BME280;11014;53.076;18.208;2022-12-20T07:34:36;101634.00;;;8.82;56.90
21706;BME280;11014;53.076;18.208;2022-12-20T07:37:39;101641.63;;;8.85;56.69
21706;BME280;11014;53.076;18.208;2022-12-20T07:40:34;101636.69;;;8.89;56.73
21706;BME280;11014;53.076;18.208;2022-12-20T07:43:02;101641.88;;;8.90;56.22
21706;BME280;11014;53.076;18.208;2022-12-20T07:45:33;101639.59;;;8.87;56.49
21706;BME280;11014;53.076;18.208;2022-12-20T07:48:04;101646.41;;;8.90;56.59
21706;BME280;11014;53.076;18.208;2022-12-20T07:50:40;101635.69;;;8.90;56.51
21706;BME280;11014;53.076;18.208;2022-12-20T07:53:09;101622.47;;;8.88;56.60
21706;BME280;11014;53.076;18.208;2022-12-20T07:55:54;101632.63;;;8.93;56.16
21706;BME280;11014;53.076;18.208;2022-12-20T07:58:24;101627.91;;;8.95;56.10
21706;BME280;11014;53.076;18.208;2022-12-20T08:00:54;101622.53;;;8.95;56.28
21706;BME280;11014;53.076;18.208;2022-12-20T08:03:45;101635.97;;;9.02;56.26
21706;BME280;11014;53.076;18.208;2022-12-20T08:06:19;101643.22;;;9.08;56.33
21706;BME280;11014;53.076;18.208;2022-12-20T08:08:53;101634.78;;;9.04;55.97
21706;BME280;11014;53.076;18.208;2022-12-20T08:11:28;101636.63;;;9.04;56.24
21706;BME280;11014;53.076;18.208;2022-12-20T08:14:00;101632.50;;;9.08;55.84
21706;BME280;11014;53.076;18.208;2022-12-20T08:16:38;101632.94;;;9.11;55.78
21706;BME280;11014;53.076;18.208;2022-12-20T08:19:07;101628.41;;;9.12;55.88
21706;BME280;11014;53.076;18.208;2022-12-20T08:22:07;101625.53;;;9.13;56.01
21706;BME280;11014;53.076;18.208;2022-12-20T08:24:36;101644.75;;;9.17;55.67
21706;BME280;11014;53.076;18.208;2022-12-20T08:27:04;101640.59;;;9.14;55.33
21706;BME280;11014;53.076;18.208;2022-12-20T08:29:33;101638.94;;;9.13;55.33
21706;BME280;11014;53.076;18.208;2022-12-20T08:32:02;101640.38;;;9.16;55.31
21706;BME280;11014;53.076;18.208;2022-12-20T08:34:33;101631.13;;;9.18;55.20
21706;BME280;11014;53.076;18.208;2022-12-20T08:37:01;101627.22;;;9.21;55.16
21706;BME280;11014;53.076;18.208;2022-12-20T08:39:41;101637.94;;;9.21;54.91
21706;BME280;11014;53.076;18.208;2022-12-20T08:42:16;101633.41;;;9.21;55.06
21706;BME280;11014;53.076;18.208;2022-12-20T08:44:44;101647.47;;;9.23;54.93
21706;BME280;11014;53.076;18.208;2022-12-20T08:47:12;101640.44;;;9.22;55.05
21706;BME280;11014;53.076;18.208;2022-12-20T08:49:42;101632.63;;;9.27;55.04
21706;BME280;11014;53.076;18.208;2022-12-20T08:52:15;101638.84;;;9.34;54.93
21706;BME280;11014;53.076;18.208;2022-12-20T08:55:25;101632.09;;;9.38;55.01
21706;BME280;11014;53.076;18.208;2022-12-20T08:57:58;101617.06;;;9.44;54.87
21706;BME280;11014;53.076;18.208;2022-12-20T09:01:11;101612.97;;;9.54;54.61
21706;BME280;11014;53.076;18.208;2022-12-20T09:03:58;101611.34;;;9.60;54.40
21706;BME280;11014;53.076;18.208;2022-12-20T09:06:28;101603.91;;;9.62;54.42
21706;BME280;11014;53.076;18.208;2022-12-20T09:08:58;101599.78;;;9.60;54.36
21706;BME280;11014;53.076;18.208;2022-12-20T09:11:32;101595.69;;;9.64;54.20
21706;BME280;11014;53.076;18.208;2022-12-20T09:14:03;101585.78;;;9.71;54.29
21706;BME280;11014;53.076;18.208;2022-12-20T09:16:35;101587.28;;;9.80;53.88
21706;BME280;11014;53.076;18.208;2022-12-20T09:19:06;101597.63;;;9.83;54.01
21706;BME280;11014;53.076;18.208;2022-12-20T09:21:35;101598.22;;;9.85;53.87
21706;BME280;11014;53.076;18.208;2022-12-20T09:24:09;101597.44;;;9.91;53.89
21706;BME280;11014;53.076;18.208;2022-12-20T09:26:39;101592.69;;;9.93;53.64
21706;BME280;11014;53.076;18.208;2022-12-20T09:29:16;101598.66;;;9.95;53.59
21706;BME280;11014;53.076;18.208;2022-12-20T09:31:55;101598.25;;;9.98;53.25
21706;BME280;11014;53.076;18.208;2022-12-20T09:34:51;101608.59;;;10.01;53.52
21706;BME280;11014;53.076;18.208;2022-12-20T09:38:21;101614.84;;;10.08;53.47
21706;BME280;11014;53.076;18.208;2022-12-20T09:45:57;101604.28;;;10.06;52.92
21706;BME280;11014;53.076;18.208;2022-12-20T09:49:50;101586.66;;;9.84;53.49
21706;BME280;11014;53.076;18.208;2022-12-20T10:00:39;101587.28;;;9.86;53.88
21706;BME280;11014;53.076;18.208;2022-12-20T10:17:26;101578.94;;;10.16;53.09
21706;BME280;11014;53.076;18.208;2022-12-20T10:26:14;101564.28;;;10.18;53.16
21706;BME280;11014;53.076;18.208;2022-12-20T10:38:12;101548.38;;;10.36;52.74
21706;BME280;11014;53.076;18.208;2022-12-20T10:42:35;101545.28;;;10.39;52.84
21706;BME280;11014;53.076;18.208;2022-12-20T11:02:41;101539.28;;;10.50;52.41
21706;BME280;11014;53.076;18.208;2022-12-20T11:05:21;101536.78;;;10.55;52.53
21706;BME280;11014;53.076;18.208;2022-12-20T11:08:29;101543.81;;;10.69;52.12
21706;BME280;11014;53.076;18.208;2022-12-20T11:11:21;101534.94;;;10.62;52.28
21706;BME280;11014;53.076;18.208;2022-12-20T11:14:13;101542.16;;;10.55;52.26
21706;BME280;11014;53.076;18.208;2022-12-20T11:17:31;101536.59;;;10.50;51.87
21706;BME280;11014;53.076;18.208;2022-12-20T11:20:34;101533.50;;;10.53;51.96
21706;BME280;11014;53.076;18.208;2022-12-20T11:30:29;101537.22;;;10.59;52.07
21706;BME280;11014;53.076;18.208;2022-12-20T11:37:22;101550.41;;;10.60;52.23
21706;BME280;11014;53.076;18.208;2022-12-20T11:44:53;101544.63;;;10.63;52.22
21706;BME280;11014;53.076;18.208;2022-12-20T11:48:31;101537.63;;;10.56;52.02
21706;BME280;11014;53.076;18.208;2022-12-20T11:51:24;101525.44;;;10.53;52.04
21706;BME280;11014;53.076;18.208;2022-12-20T12:01:25;101519.03;;;10.28;53.02
21706;BME280;11014;53.076;18.208;2022-12-20T12:04:31;101522.75;;;10.47;52.65
21706;BME280;11014;53.076;18.208;2022-12-20T12:07:35;101514.06;;;10.45;52.56
21706;BME280;11014;53.076;18.208;2022-12-20T12:12:51;101508.28;;;10.41;52.75
21706;BME280;11014;53.076;18.208;2022-12-20T12:15:50;101515.31;;;10.42;53.04
21706;BME280;11014;53.076;18.208;2022-12-20T12:18:33;101506.22;;;10.37;53.12
21706;BME280;11014;53.076;18.208;2022-12-20T12:21:06;101502.50;;;10.31;53.37
21706;BME280;11014;53.076;18.208;2022-12-20T12:27:00;101497.75;;;10.33;53.66
21706;BME280;11014;53.076;18.208;2022-12-20T12:29:29;101499.00;;;10.37;53.98
21706;BME280;11014;53.076;18.208;2022-12-20T12:32:07;101488.47;;;10.42;53.99
21706;BME280;11014;53.076;18.208;2022-12-20T12:34:53;101491.75;;;10.44;54.01
21706;BME280;11014;53.076;18.208;2022-12-20T12:40:38;101489.72;;;10.46;54.03
21706;BME280;11014;53.076;18.208;2022-12-20T12:43:44;101484.34;;;10.46;53.80
21706;BME280;11014;53.076;18.208;2022-12-20T12:46:27;101487.22;;;10.51;54.05
21706;BME280;11014;53.076;18.208;2022-12-20T12:49:12;101480.59;;;10.47;53.84
21706;BME280;11014;53.076;18.208;2022-12-20T12:52:01;101485.16;;;10.40;53.91
21706;BME280;11014;53.076;18.208;2022-12-20T12:54:38;101477.72;;;10.42;53.90
21706;BME280;11014;53.076;18.208;2022-12-20T12:57:16;101472.34;;;10.42;53.86
21706;BME280;11014;53.076;18.208;2022-12-20T12:59:48;101464.06;;;10.44;53.66
21706;BME280;11014;53.076;18.208;2022-12-20T13:02:25;101470.25;;;10.44;53.97
21706;BME280;11014;53.076;18.208;2022-12-20T13:08:16;101460.78;;;10.48;53.46
21706;BME280;11014;53.076;18.208;2022-12-20T13:13:22;101461.19;;;10.45;53.91
21706;BME280;11014;53.076;18.208;2022-12-20T13:16:08;101449.59;;;10.45;53.57
21706;BME280;11014;53.076;18.208;2022-12-20T13:19:10;101443.59;;;10.49;53.53
21706;BME280;11014;53.076;18.208;2022-12-20T13:27:32;101444.25;;;10.51;53.57
21706;BME280;11014;53.076;18.208;2022-12-20T13:30:22;101447.31;;;10.55;53.75
21706;BME280;11014;53.076;18.208;2022-12-20T13:32:58;101451.88;;;10.54;53.82
21706;BME280;11014;53.076;18.208;2022-12-20T13:35:31;101438.44;;;10.54;53.74
21706;BME280;11014;53.076;18.208;2022-12-20T13:38:49;101447.13;;;10.56;53.78
21706;BME280;11014;53.076;18.208;2022-12-20T13:43:58;101444.84;;;10.47;53.86
21706;BME280;11014;53.076;18.208;2022-12-20T13:46:30;101454.78;;;10.46;53.83
21706;BME280;11014;53.076;18.208;2022-12-20T13:49:28;101448.38;;;10.47;53.79
21706;BME280;11014;53.076;18.208;2022-12-20T13:52:32;101450.63;;;10.50;54.03
21706;BME280;11014;53.076;18.208;2022-12-20T13:55:13;101463.66;;;10.53;53.63
21706;BME280;11014;53.076;18.208;2022-12-20T13:57:44;101449.19;;;10.54;53.77
21706;BME280;11014;53.076;18.208;2022-12-20T14:00:37;101440.91;;;10.56;53.81
21706;BME280;11014;53.076;18.208;2022-12-20T14:03:27;101444.84;;;10.53;53.78
21706;BME280;11014;53.076;18.208;2022-12-20T14:06:03;101432.25;;;10.54;53.55
21706;BME280;11014;53.076;18.208;2022-12-20T14:08:45;101429.75;;;10.52;53.82
21706;BME280;11014;53.076;18.208;2022-12-20T14:17:31;101433.09;;;10.48;53.73
21706;BME280;11014;53.076;18.208;2022-12-20T14:23:10;101434.56;;;10.37;53.82
21706;BME280;11014;53.076;18.208;2022-12-20T14:28:51;101439.31;;;10.35;53.73
21706;BME280;11014;53.076;18.208;2022-12-20T14:31:47;101427.94;;;10.33;54.14
21706;BME280;11014;53.076;18.208;2022-12-20T14:34:46;101425.25;;;10.33;53.84
21706;BME280;11014;53.076;18.208;2022-12-20T14:37:33;101415.38;;;10.27;53.86
21706;BME280;11014;53.076;18.208;2022-12-20T14:40:21;101411.00;;;10.20;53.93
21706;BME280;11014;53.076;18.208;2022-12-20T14:42:53;101404.63;;;10.14;54.09
21706;BME280;11014;53.076;18.208;2022-12-20T14:45:28;101408.50;;;10.11;53.97
21706;BME280;11014;53.076;18.208;2022-12-20T14:48:05;101408.31;;;10.06;54.16
21706;BME280;11014;53.076;18.208;2022-12-20T14:50:51;101411.22;;;10.05;54.19
21706;BME280;11014;53.076;18.208;2022-12-20T14:53:23;101403.59;;;10.02;54.35
21706;BME280;11014;53.076;18.208;2022-12-20T14:55:59;101405.44;;;10.01;54.44
21706;BME280;11014;53.076;18.208;2022-12-20T14:58:29;101393.88;;;10.01;54.40
21706;BME280;11014;53.076;18.208;2022-12-20T15:03:59;101395.13;;;10.05;54.42
21706;BME280;11014;53.076;18.208;2022-12-20T15:06:32;101401.72;;;10.09;54.26
21706;BME280;11014;53.076;18.208;2022-12-20T15:09:02;101383.53;;;10.11;54.34
21706;BME280;11014;53.076;18.208;2022-12-20T15:11:41;101406.50;;;10.14;54.28
21706;BME280;11014;53.076;18.208;2022-12-20T15:16:57;101403.81;;;10.14;54.08
21706;BME280;11014;53.076;18.208;2022-12-20T15:19:37;101399.88;;;10.16;53.95
21706;BME280;11014;53.076;18.208;2022-12-20T15:22:14;101407.94;;;10.16;54.02
21706;BME280;11014;53.076;18.208;2022-12-20T15:24:43;101418.25;;;10.19;54.20
21706;BME280;11014;53.076;18.208;2022-12-20T15:27:25;101389.34;;;10.21;53.76
21706;BME280;11014;53.076;18.208;2022-12-20T15:30:10;101363.09;;;10.23;54.22
21706;BME280;11014;53.076;18.208;2022-12-20T15:33:03;101370.13;;;10.24;53.78
21706;BME280;11014;53.076;18.208;2022-12-20T15:36:09;101396.56;;;10.27;53.83
21706;BME280;11014;53.076;18.208;2022-12-20T15:39:36;101407.91;;;10.29;53.67
21706;BME280;11014;53.076;18.208;2022-12-20T15:43:42;101399.63;;;10.31;53.65
21706;BME280;11014;53.076;18.208;2022-12-20T15:46:34;101395.09;;;10.31;53.72
21706;BME280;11014;53.076;18.208;2022-12-20T15:53:37;101384.16;;;10.33;53.32
21706;BME280;11014;53.076;18.208;2022-12-20T15:56:38;101386.44;;;10.29;53.71
21706;BME280;11014;53.076;18.208;2022-12-20T15:59:41;101387.88;;;10.25;53.64
21706;BME280;11014;53.076;18.208;2022-12-20T16:03:13;101392.03;;;10.21;53.41
21706;BME280;11014;53.076;18.208;2022-12-20T16:06:10;101396.97;;;10.18;53.41
21706;BME280;11014;53.076;18.208;2022-12-20T16:18:56;101390.56;;;9.99;53.57
21706;BME280;11014;53.076;18.208;2022-12-20T17:08:17;101350.94;;;10.01;54.50
21706;BME280;11014;53.076;18.208;2022-12-20T17:16:01;101353.38;;;10.09;54.49
21706;BME280;11014;53.076;18.208;2022-12-20T17:18:47;101352.59;;;10.02;54.58
21706;BME280;11014;53.076;18.208;2022-12-20T17:21:31;101342.88;;;10.01;54.71